aviador You're here:

OMFJ Decoded Metar

FUJEIRAH in UNITED ARAB EMIRATES
Report Time2017-06-24 17:00:00
UTC Time2017-06-24 17:16:59
Flight Rules mvfr MVFR
Wind260° at 12 kt
W.Decomp.*RWY 29: 10.4 kt HW 6 kt LCW
W.Rank260° ranks 18
Current wind is above 260° avg. (6.4)
Visibility7000 m
Phenomena:N/A
Clouds:N/A
Expected CloudBase > 12,800 ft AGL from Temp-Dew spread
CeilingNone
Temp42°C (ISA +27)
Dew Point10°C (15% RH)
Heat Index40.5°C
AAT37.7°C
QNH0997 hPa
Density Alt3,835 ft
Elevation92 ft
Report Wrong Elevation
Raw Report
OMFJ 241700Z 26012KT 7000 NSC 42/10 Q0997 RMK A2944=

Extra information for OMFJ:More info

Metar Taf Metar & Taf Last 4 Metars F.Rules Stats Wind Profile Meteogram Temp Stats Airport Information Weather charts Add Link Nearby VenuesMetar ALERT Operation Metar Decoded Social comments